PWSweather.com
Personal Weather Stations
Station Observations
KB2SBX
Sugarloaf, Sugarloaf, PA 18249

SugarloafSugarloaf, PA 18249

Lat: 41.0126685, Lon: -76.1082041

Elevation: 1030

Station Type: WS-2080

http://sugarloafpaweather.webng.com/weather.shtml

Latest ConditionsUpdated 5:40:00 AM EST Saturday, Feb 13, 2016
Currently Today's Max Today's Min Today's Average
Temperature 13.8°F-10.1°C 16.5°F-8.6°C 13.8°F-10.1°C 15.4°F-9.2°C
Dew Point -0.1°F-17.8°C 7.9°F-13.4°C -0.1°F-17.8°C 6.0°F-14.4°C
Winds Calm Calm 5.4 mph WSW8.7 kmh WSW - 0.4 mph 0.6 kmh
Wind Gusts 9.2 mph14.8 kmh 12.1 mph19.5 kmh - -
Humidity 53% 68% 53% 65%
Pressure 29.72 in1006.4 mb 29.72 in1006.4 mb 29.61 in1002.7 mb -
Hour Temp Dew Point Humidity Winds Wind Gusts Pressure Precip Precip Rate Daily Precip Total
05:40 AM 13.8°F-10.1°C -0.1°F-17.8°C 53% Calm Calm 9.2 mph14.8 kmh 29.72 in1006.4 mb 0.00 in0.0 mm 0.00 in0.0 mm 0.00 in0.0 mm
05:30 AM 14.2°F-9.9°C 2.9°F-16.2°C 60% 5.4 mph WSW8.7 kmh WSW 12.1 mph19.5 kmh 29.71 in1006.1 mb 0.00 in0.0 mm 0.00 in0.0 mm 0.00 in0.0 mm
05:20 AM 14.5°F-9.7°C 4.3°F-15.4°C 63% 0.7 mph NW1.1 kmh NW 6.9 mph11.1 kmh 29.70 in1005.8 mb 0.00 in0.0 mm 0.00 in0.0 mm 0.00 in0.0 mm
05:10 AM 14.5°F-9.7°C 4.7°F-15.2°C 64% 1.6 mph SW2.6 kmh SW 5.4 mph8.7 kmh 29.69 in1005.4 mb 0.00 in0.0 mm 0.00 in0.0 mm 0.00 in0.0 mm
05:00 AM 14.5°F-9.7°C 4.7°F-15.2°C 64% Calm Calm 5.4 mph8.7 kmh 29.68 in1005.1 mb 0.00 in0.0 mm 0.00 in0.0 mm 0.00 in0.0 mm
04:50 AM 14.5°F-9.7°C 4.7°F-15.2°C 64% 0.7 mph WSW1.1 kmh WSW 3.8 mph6.1 kmh 29.67 in1004.7 mb 0.00 in0.0 mm 0.00 in0.0 mm 0.00 in0.0 mm
04:40 AM 14.4°F-9.8°C 4.5°F-15.3°C 64% Calm Calm 6.0 mph9.7 kmh 29.67 in1004.7 mb 0.00 in0.0 mm 0.00 in0.0 mm 0.00 in0.0 mm
04:30 AM 14.5°F-9.7°C 5.0°F-15.0°C 65% 1.6 mph NW2.6 kmh NW 3.8 mph6.1 kmh 29.65 in1004.1 mb 0.00 in0.0 mm 0.00 in0.0 mm 0.00 in0.0 mm
04:20 AM 14.9°F-9.5°C 5.3°F-14.8°C 65% Calm Calm 3.8 mph6.1 kmh 29.64 in1003.7 mb 0.00 in0.0 mm 0.00 in0.0 mm 0.00 in0.0 mm
04:10 AM 15.1°F-9.4°C 5.5°F-14.7°C 65% Calm Calm 5.4 mph8.7 kmh 29.64 in1003.7 mb 0.00 in0.0 mm 0.00 in0.0 mm 0.00 in0.0 mm
04:00 AM 15.4°F-9.2°C 5.8°F-14.6°C 65% Calm Calm 3.8 mph6.1 kmh 29.63 in1003.4 mb 0.00 in0.0 mm 0.00 in0.0 mm 0.00 in0.0 mm
03:50 AM 15.6°F-9.1°C 6.0°F-14.4°C 65% 0.7 mph WSW1.1 kmh WSW 3.1 mph5.0 kmh 29.62 in1003.0 mb 0.00 in0.0 mm 0.00 in0.0 mm 0.00 in0.0 mm
03:40 AM 15.4°F-9.2°C 5.8°F-14.6°C 65% 0.7 mph WSW1.1 kmh WSW 4.5 mph7.2 kmh 29.62 in1003.0 mb 0.00 in0.0 mm 0.00 in0.0 mm 0.00 in0.0 mm
03:30 AM 15.1°F-9.4°C 5.5°F-14.7°C 65% Calm Calm 3.8 mph6.1 kmh 29.62 in1003.0 mb 0.00 in0.0 mm 0.00 in0.0 mm 0.00 in0.0 mm
03:20 AM 14.5°F-9.7°C 4.7°F-15.2°C 64% Calm Calm 2.2 mph3.5 kmh 29.62 in1003.0 mb 0.00 in0.0 mm 0.00 in0.0 mm 0.00 in0.0 mm
03:10 AM 14.7°F-9.6°C 5.2°F-14.9°C 65% 0.7 mph W1.1 kmh W 1.6 mph2.6 kmh 29.62 in1003.0 mb 0.00 in0.0 mm 0.00 in0.0 mm 0.00 in0.0 mm
03:00 AM 14.5°F-9.7°C 5.0°F-15.0°C 65% 1.6 mph SW2.6 kmh SW 3.8 mph6.1 kmh 29.62 in1003.0 mb 0.00 in0.0 mm 0.00 in0.0 mm 0.00 in0.0 mm
02:50 AM 14.7°F-9.6°C 5.2°F-14.9°C 65% Calm Calm 2.2 mph3.5 kmh 29.61 in1002.7 mb 0.00 in0.0 mm 0.00 in0.0 mm 0.00 in0.0 mm
02:40 AM 15.4°F-9.2°C 6.2°F-14.3°C 66% Calm Calm 1.6 mph2.6 kmh 29.61 in1002.7 mb 0.00 in0.0 mm 0.00 in0.0 mm 0.00 in0.0 mm
02:30 AM 16.0°F-8.9°C 6.7°F-14.1°C 66% Calm Calm 1.6 mph2.6 kmh 29.61 in1002.7 mb 0.00 in0.0 mm 0.00 in0.0 mm 0.00 in0.0 mm
02:20 AM 16.2°F-8.8°C 7.2°F-13.8°C 67% Calm Calm 3.1 mph5.0 kmh 29.61 in1002.7 mb 0.00 in0.0 mm 0.00 in0.0 mm 0.00 in0.0 mm
02:10 AM 16.2°F-8.8°C 7.2°F-13.8°C 67% Calm Calm 3.1 mph5.0 kmh 29.62 in1003.0 mb 0.00 in0.0 mm 0.00 in0.0 mm 0.00 in0.0 mm
02:00 AM 16.2°F-8.8°C 7.5°F-13.6°C 68% Calm Calm 0.7 mph1.1 kmh 29.62 in1003.0 mb 0.00 in0.0 mm 0.00 in0.0 mm 0.00 in0.0 mm
01:50 AM 16.2°F-8.8°C 7.5°F-13.6°C 68% Calm Calm 2.2 mph3.5 kmh 29.62 in1003.0 mb 0.00 in0.0 mm 0.00 in0.0 mm 0.00 in0.0 mm
01:40 AM 16.3°F-8.7°C 7.7°F-13.5°C 68% 0.7 mph SW1.1 kmh SW 2.2 mph3.5 kmh 29.62 in1003.0 mb 0.00 in0.0 mm 0.00 in0.0 mm 0.00 in0.0 mm
01:30 AM 16.3°F-8.7°C 7.7°F-13.5°C 68% Calm Calm 0.7 mph1.1 kmh 29.62 in1003.0 mb 0.00 in0.0 mm 0.00 in0.0 mm 0.00 in0.0 mm
01:20 AM 16.3°F-8.7°C 7.7°F-13.5°C 68% Calm Calm 0.7 mph1.1 kmh 29.62 in1003.0 mb 0.00 in0.0 mm 0.00 in0.0 mm 0.00 in0.0 mm
01:10 AM 16.3°F-8.7°C 7.7°F-13.5°C 68% Calm Calm 0.7 mph1.1 kmh 29.62 in1003.0 mb 0.00 in0.0 mm 0.00 in0.0 mm 0.00 in0.0 mm
01:00 AM 16.5°F-8.6°C 7.9°F-13.4°C 68% Calm Calm 0.7 mph1.1 kmh 29.62 in1003.0 mb 0.00 in0.0 mm 0.00 in0.0 mm 0.00 in0.0 mm
12:50 AM 16.3°F-8.7°C 7.4°F-13.7°C 67% Calm Calm 2.2 mph3.5 kmh 29.63 in1003.4 mb 0.00 in0.0 mm 0.00 in0.0 mm 0.00 in0.0 mm
12:40 AM 16.3°F-8.7°C 7.4°F-13.7°C 67% Calm Calm 3.1 mph5.0 kmh 29.63 in1003.4 mb 0.00 in0.0 mm 0.00 in0.0 mm 0.00 in0.0 mm
12:30 AM 16.3°F-8.7°C 7.4°F-13.7°C 67% Calm Calm 1.6 mph2.6 kmh 29.63 in1003.4 mb 0.00 in0.0 mm 0.00 in0.0 mm 0.00 in0.0 mm
12:20 AM 16.3°F-8.7°C 7.4°F-13.7°C 67% Calm Calm 1.6 mph2.6 kmh 29.64 in1003.7 mb 0.00 in0.0 mm 0.00 in0.0 mm 0.00 in0.0 mm
12:10 AM 16.3°F-8.7°C 7.4°F-13.7°C 67% 0.7 mph S1.1 kmh S 1.6 mph2.6 kmh 29.64 in1003.7 mb 0.00 in0.0 mm 0.00 in0.0 mm 0.00 in0.0 mm
12:00 AM 16.3°F-8.7°C 7.0°F-13.9°C 66% Calm Calm 2.2 mph3.5 kmh 29.64 in1003.7 mb 0.00 in0.0 mm 0.00 in0.0 mm 0.00 in0.0 mm